createdAt,value
2022-10-31T00:06:41.688Z,88.72
2022-10-31T00:16:43.084Z,87.91
2022-10-31T00:26:44.438Z,87.49
2022-10-31T00:36:45.877Z,87.85
2022-10-31T00:46:47.226Z,88.08
2022-10-31T00:56:48.540Z,89.64
2022-10-31T01:06:49.895Z,87.22
2022-10-31T01:16:51.310Z,88.13
2022-10-31T01:26:52.653Z,89.32
2022-10-31T01:36:53.998Z,90.34
2022-10-31T01:47:06.202Z,87.77
2022-10-31T01:57:11.314Z,91.10
2022-10-31T02:07:20.395Z,91.04
2022-10-31T02:17:21.763Z,90.38
2022-10-31T02:27:48.103Z,88.44
2022-10-31T02:38:03.755Z,88.31
2022-10-31T02:48:13.110Z,89.28
2022-10-31T03:08:55.828Z,91.17
2022-10-31T03:19:14.747Z,94.00
2022-10-31T03:29:20.318Z,92.06
2022-10-31T03:39:23.611Z,90.24
2022-10-31T03:49:25.330Z,91.74
2022-10-31T03:59:42.165Z,90.22
2022-10-31T04:09:48.660Z,92.06
2022-10-31T04:19:50.024Z,89.36
2022-10-31T04:29:51.343Z,90.51
2022-10-31T04:39:52.687Z,90.26
2022-10-31T04:49:54.015Z,91.25
2022-10-31T04:59:55.368Z,91.91
2022-10-31T05:09:56.703Z,92.35
2022-10-31T05:19:58.108Z,92.30
2022-10-31T05:40:07.150Z,91.14
2022-10-31T05:50:10.997Z,91.63
2022-10-31T06:00:13.012Z,91.87
2022-10-31T06:10:14.785Z,92.05
2022-10-31T06:20:16.143Z,90.84
2022-10-31T06:30:17.572Z,92.39
2022-10-31T06:40:18.991Z,93.95
2022-10-31T06:50:22.814Z,92.29
2022-10-31T07:00:27.004Z,90.39
2022-10-31T07:10:32.083Z,92.50
2022-10-31T07:20:36.345Z,90.65
2022-10-31T07:30:38.979Z,92.25
2022-10-31T07:40:41.507Z,91.23
2022-10-31T07:50:42.829Z,92.29
2022-10-31T08:00:46.093Z,93.46
2022-10-31T08:10:47.518Z,92.07
2022-10-31T08:20:48.837Z,91.59
2022-10-31T08:30:50.215Z,90.75
2022-10-31T08:40:51.610Z,92.36
2022-10-31T08:50:58.951Z,94.95
2022-10-31T09:01:02.035Z,91.95
2022-10-31T09:11:04.711Z,92.18
2022-10-31T09:21:06.079Z,89.59
2022-10-31T09:31:07.534Z,96.73
2022-10-31T09:41:20.156Z,92.16
2022-10-31T09:51:26.809Z,91.96
2022-10-31T10:01:39.336Z,93.65
2022-10-31T10:12:15.848Z,94.22
2022-10-31T10:22:27.040Z,93.06
2022-10-31T10:32:31.005Z,90.94
2022-10-31T10:42:51.148Z,90.20
2022-10-31T10:53:09.600Z,92.94
2022-10-31T11:03:11.579Z,89.58
2022-10-31T11:13:12.862Z,91.71
2022-10-31T11:23:20.314Z,89.53
2022-10-31T11:33:47.331Z,90.41
2022-10-31T11:43:59.591Z,89.84
2022-10-31T11:54:03.683Z,89.54
2022-10-31T12:04:10.441Z,87.70
2022-10-31T12:14:23.883Z,87.25
2022-10-31T12:24:46.396Z,86.54
2022-10-31T12:34:49.307Z,87.65
2022-10-31T12:45:29.829Z,86.69
2022-10-31T12:56:00.887Z,86.47
2022-10-31T13:06:10.466Z,86.55
2022-10-31T13:16:21.326Z,85.77
2022-10-31T13:26:38.331Z,85.50
2022-10-31T13:36:57.956Z,85.01
2022-10-31T13:46:59.530Z,85.77
2022-10-31T13:57:01.586Z,84.50
2022-10-31T14:07:08.866Z,84.99
2022-10-31T14:17:20.305Z,85.09
2022-10-31T14:27:22.574Z,84.96
2022-10-31T14:37:39.209Z,84.45
2022-10-31T14:48:06.821Z,84.48
2022-10-31T14:58:09.765Z,84.20
2022-10-31T15:08:26.405Z,84.10
2022-10-31T15:18:29.035Z,84.98
2022-10-31T15:28:32.103Z,85.07
2022-10-31T15:38:33.884Z,85.08
2022-10-31T15:48:36.027Z,85.41
2022-10-31T15:58:46.846Z,84.64
2022-10-31T16:08:50.241Z,85.24
2022-10-31T16:18:53.595Z,83.38
2022-10-31T16:29:03.355Z,83.44
2022-10-31T16:39:07.807Z,83.00
2022-10-31T16:49:10.447Z,82.99
2022-10-31T16:59:16.022Z,83.29
2022-10-31T17:09:17.785Z,82.84
2022-10-31T17:19:19.234Z,82.79
2022-10-31T17:29:20.589Z,84.09
2022-10-31T17:39:23.025Z,84.47
2022-10-31T17:49:24.358Z,84.75
2022-10-31T17:59:27.544Z,84.51
2022-10-31T18:09:28.900Z,84.05
2022-10-31T18:19:30.228Z,83.70
2022-10-31T18:29:31.585Z,82.01
2022-10-31T18:39:33.057Z,79.54
2022-10-31T18:49:34.503Z,79.41
2022-10-31T18:59:36.023Z,76.41
2022-10-31T19:09:37.423Z,75.56
2022-10-31T19:19:39.265Z,73.97
2022-10-31T19:29:42.158Z,73.07
2022-10-31T19:39:44.420Z,72.32
2022-10-31T19:49:46.010Z,73.35
2022-10-31T19:59:47.341Z,71.43
2022-10-31T20:09:48.725Z,71.78
2022-10-31T20:19:50.121Z,73.07
2022-10-31T20:29:51.783Z,72.41
2022-10-31T20:39:55.727Z,73.57
2022-10-31T20:49:58.018Z,73.72
2022-10-31T20:59:59.353Z,73.89
2022-10-31T21:10:00.668Z,75.34
2022-10-31T21:20:02.417Z,74.67
2022-10-31T21:30:04.123Z,74.87
2022-10-31T21:40:06.008Z,75.35
2022-10-31T21:50:08.006Z,73.27
2022-10-31T22:00:10.058Z,75.16
2022-10-31T22:10:12.039Z,73.42
2022-10-31T22:20:13.426Z,73.96
2022-10-31T22:30:14.849Z,74.47
2022-10-31T22:40:16.670Z,74.19
2022-10-31T22:50:18.039Z,74.77
2022-10-31T23:00:19.981Z,74.70
2022-10-31T23:10:21.302Z,74.36
2022-10-31T23:20:22.975Z,73.77
2022-10-31T23:30:24.319Z,74.60
2022-10-31T23:40:25.637Z,73.76
2022-10-31T23:50:27.032Z,74.59
